Time;durP1;ratioP1;P1;durP2;ratioP2;P2;SDS_P1;SDS_P2;PMS_P1;PMS_P2;Temp;Humidity;BMP_temperature;BMP_pressure;BME280_temperature;BME280_humidity;BME280_pressure;Samples;Min_cycle;Max_cycle;Signal;HPM_P1;HPM_P2
2022/01/20 00:02:35;;;;;;;4.47;4.10;;;6.10;48.30;;;;;;20920;6721;117319;-78
2022/01/20 00:28:19;;;;;;;5.10;4.80;;;6.20;48.30;;;;;;20532;6722;307141;-78
2022/01/20 00:31:11;;;;;;;3.83;3.63;;;6.30;48.60;;;;;;20918;6729;117358;-79
2022/01/20 00:33:49;;;;;;;5.03;4.72;;;6.20;48.50;;;;;;20743;6764;281621;-79
2022/01/20 00:39:12;;;;;;;4.90;4.60;;;6.80;47.60;;;;;;19644;7085;318431;-83
2022/01/20 00:41:48;;;;;;;5.27;4.97;;;6.80;47.60;;;;;;20279;6809;306628;-80
2022/01/20 00:44:24;;;;;;;4.63;4.20;;;6.90;47.20;;;;;;20851;6747;116954;-78
2022/01/20 00:46:59;;;;;;;5.18;4.87;;;6.70;47.40;;;;;;20586;6747;328907;-80
2022/01/20 00:49:34;;;;;;;5.15;4.85;;;6.60;47.50;;;;;;20703;6729;334497;-79
2022/01/20 00:52:10;;;;;;;4.80;4.50;;;6.80;47.30;;;;;;20853;6744;123046;-78
2022/01/20 00:54:46;;;;;;;4.50;4.20;;;6.60;47.40;;;;;;20887;6744;120966;-79
2022/01/20 00:57:22;;;;;;;3.80;3.50;;;6.30;47.90;;;;;;20793;6744;117281;-79
2022/01/20 00:59:58;;;;;;;4.90;4.60;;;6.10;48.40;;;;;;20673;6744;307122;-79
2022/01/20 01:02:35;;;;;;;5.10;4.70;;;6.10;49.10;;;;;;20815;6758;119564;-79
2022/01/20 01:05:11;;;;;;;5.03;4.63;;;6.10;48.30;;;;;;20810;6758;117343;-79
2022/01/20 01:07:49;;;;;;;4.80;4.50;;;5.90;48.80;;;;;;20723;6750;117405;-79
2022/01/20 01:10:23;;;;;;;4.97;4.67;;;5.70;49.00;;;;;;20527;6765;342460;-80
2022/01/20 01:13:06;;;;;;;5.03;4.73;;;5.90;49.10;;;;;;20876;6744;116924;-79
2022/01/20 01:15:44;;;;;;;4.47;4.17;;;5.90;48.90;;;;;;20835;6756;115922;-79
2022/01/20 01:21:26;;;;;;;4.85;4.62;;;5.90;49.00;;;;;;20679;6737;335518;-79
2022/01/20 01:23:47;;;;;;;4.63;4.33;;;6.30;48.40;;;;;;20871;6789;116673;-79
2022/01/20 01:26:27;;;;;;;4.67;4.37;;;6.20;48.30;;;;;;20871;6733;117350;-79
2022/01/20 01:29:02;;;;;;;4.50;4.20;;;6.00;48.80;;;;;;20922;6729;115826;-79
2022/01/20 01:31:38;;;;;;;5.55;5.25;;;5.80;49.30;;;;;;20742;6716;335104;-79
2022/01/20 01:34:14;;;;;;;4.63;4.33;;;5.90;50.20;;;;;;20935;6716;120563;-79
2022/01/20 01:37:06;;;;;;;4.80;4.50;;;5.80;50.00;;;;;;20868;6729;117327;-79
2022/01/20 01:39:29;;;;;;;5.93;5.63;;;5.60;50.20;;;;;;20582;6811;315678;-79
2022/01/20 01:42:07;;;;;;;4.57;4.30;;;5.60;51.00;;;;;;20850;6749;117134;-79
2022/01/20 01:44:41;;;;;;;6.00;5.60;;;5.60;51.00;;;;;;20681;6733;305447;-79
2022/01/20 01:47:16;;;;;;;5.90;5.50;;;5.70;51.90;;;;;;20796;6741;120796;-79
2022/01/20 01:49:52;;;;;;;5.87;5.57;;;5.60;51.60;;;;;;20671;6739;282273;-80
2022/01/20 01:52:27;;;;;;;6.10;5.70;;;5.70;52.30;;;;;;20653;6739;337623;-79
2022/01/20 01:55:07;;;;;;;5.20;4.90;;;5.90;51.70;;;;;;20894;6739;117184;-80
2022/01/20 01:57:42;;;;;;;6.15;5.68;;;5.80;51.60;;;;;;20561;6739;279818;-79
2022/01/20 02:00:21;;;;;;;5.17;4.87;;;5.90;52.00;;;;;;20866;6736;116898;-79
2022/01/20 02:02:56;;;;;;;5.82;5.50;;;5.80;51.80;;;;;;20641;6744;306332;-79
2022/01/20 02:05:33;;;;;;;5.43;5.12;;;5.80;52.00;;;;;;20646;6743;336559;-79
2022/01/20 02:09:09;;;;;;;5.30;5.00;;;6.10;51.80;;;;;;20601;6717;281502;-82
2022/01/20 02:19:33;;;;;;;5.07;4.78;;;6.20;51.60;;;;;;20722;6725;279963;-78
2022/01/20 02:22:09;;;;;;;4.33;4.03;;;6.20;51.60;;;;;;20841;6740;117752;-78
2022/01/20 02:24:45;;;;;;;4.97;4.67;;;6.10;51.40;;;;;;20630;6753;309146;-78
2022/01/20 02:27:20;;;;;;;4.90;4.60;;;6.10;51.60;;;;;;20568;6738;337883;-78
2022/01/20 02:29:56;;;;;;;4.75;4.50;;;6.30;51.30;;;;;;20709;6724;335776;-78
2022/01/20 02:32:31;;;;;;;4.72;4.43;;;6.50;50.80;;;;;;20669;6728;297370;-83
2022/01/20 02:35:09;;;;;;;4.72;4.43;;;6.70;50.50;;;;;;20615;6756;305177;-79
2022/01/20 02:37:47;;;;;;;3.57;3.37;;;6.70;50.10;;;;;;20732;6751;118035;-80
2022/01/20 02:46:14;;;;;;;3.60;3.40;;;5.70;51.30;;;;;;19877;7067;118825;-79
2022/01/20 02:48:46;;;;;;;3.67;3.47;;;5.50;51.80;;;;;;20353;6793;115897;-78
2022/01/20 02:51:22;;;;;;;4.77;4.47;;;5.30;52.20;;;;;;20657;6753;306725;-80
2022/01/20 02:54:01;;;;;;;3.87;3.67;;;5.60;52.50;;;;;;20858;6738;120625;-78
2022/01/20 02:56:37;;;;;;;3.97;3.67;;;5.50;52.40;;;;;;20805;6794;117294;-80
2022/01/20 02:59:12;;;;;;;3.87;3.67;;;5.40;52.70;;;;;;20886;6738;115649;-78
2022/01/20 03:01:48;;;;;;;4.03;3.73;;;5.20;52.90;;;;;;20862;6742;117057;-79
2022/01/20 03:04:26;;;;;;;3.90;3.70;;;5.10;53.20;;;;;;20927;6723;139373;-78
2022/01/20 03:07:06;;;;;;;4.28;3.97;;;5.00;53.40;;;;;;20638;6728;307257;-79
2022/01/20 03:09:42;;;;;;;3.10;2.90;;;5.20;53.70;;;;;;20933;6724;116724;-81
2022/01/20 03:12:17;;;;;;;3.80;3.60;;;5.30;53.30;;;;;;20959;6709;116675;-78
2022/01/20 03:14:53;;;;;;;3.50;3.30;;;5.20;53.40;;;;;;20935;6724;117006;-79
2022/01/20 03:17:30;;;;;;;4.30;4.10;;;5.10;53.70;;;;;;20610;6728;288966;-78
2022/01/20 03:20:04;;;;;;;4.10;3.90;;;5.30;53.70;;;;;;20659;6743;305228;-79
2022/01/20 03:22:40;;;;;;;3.90;3.60;;;5.70;53.00;;;;;;20944;6714;116562;-79
2022/01/20 03:25:15;;;;;;;3.60;3.40;;;5.70;52.50;;;;;;20739;6718;293998;-79
2022/01/20 03:27:51;;;;;;;3.83;3.63;;;5.90;52.60;;;;;;20518;6736;324551;-79
2022/01/20 03:30:26;;;;;;;3.80;3.60;;;6.10;51.80;;;;;;20691;6726;306875;-79
2022/01/20 03:33:03;;;;;;;3.40;3.20;;;6.40;51.20;;;;;;20842;6760;117377;-79
2022/01/20 03:35:41;;;;;;;2.80;2.60;;;6.20;51.10;;;;;;20812;6762;117395;-79
2022/01/20 03:38:15;;;;;;;3.10;2.90;;;5.90;52.20;;;;;;20711;6748;117350;-79
2022/01/20 03:40:51;;;;;;;3.67;3.47;;;5.70;52.10;;;;;;20654;6735;278137;-79
2022/01/20 03:43:27;;;;;;;3.27;3.10;;;5.80;52.30;;;;;;20822;6752;117007;-79
2022/01/20 03:46:09;;;;;;;4.03;3.83;;;5.80;52.10;;;;;;20646;6748;343032;-79
2022/01/20 03:48:49;;;;;;;3.23;3.03;;;5.90;52.40;;;;;;20869;6744;117093;-79
2022/01/20 03:51:21;;;;;;;3.20;3.10;;;5.80;52.00;;;;;;20909;6730;116538;-79
2022/01/20 03:53:54;;;;;;;4.07;3.87;;;5.80;53.00;;;;;;20607;6750;276531;-81
2022/01/20 03:56:30;;;;;;;3.65;3.45;;;5.70;52.90;;;;;;20592;6748;336830;-78
2022/01/20 03:59:09;;;;;;;3.50;3.30;;;6.10;52.60;;;;;;20898;6733;116932;-81
2022/01/20 04:01:46;;;;;;;3.90;3.70;;;6.00;52.70;;;;;;20643;6748;306249;-79
2022/01/20 04:04:18;;;;;;;3.77;3.47;;;6.00;52.70;;;;;;20808;6763;121409;-80
2022/01/20 04:06:54;;;;;;;3.40;3.20;;;5.90;52.90;;;;;;20778;6759;118331;-79
2022/01/20 04:09:30;;;;;;;3.90;3.70;;;5.70;52.80;;;;;;20576;6763;337129;-80
2022/01/20 04:12:06;;;;;;;3.27;2.97;;;5.70;53.00;;;;;;20848;6751;116971;-79
2022/01/20 04:14:47;;;;;;;3.33;3.13;;;5.70;53.00;;;;;;20862;6747;117389;-80
2022/01/20 04:17:20;;;;;;;3.70;3.50;;;5.70;53.90;;;;;;20570;6748;312912;-78
2022/01/20 04:19:55;;;;;;;3.80;3.60;;;5.70;53.90;;;;;;20885;6741;116713;-79
2022/01/20 04:22:31;;;;;;;4.10;3.90;;;5.80;53.60;;;;;;20579;6778;278056;-79
2022/01/20 04:25:07;;;;;;;3.10;3.00;;;5.80;53.60;;;;;;20825;6752;116032;-78
2022/01/20 04:27:42;;;;;;;3.70;3.40;;;5.80;53.40;;;;;;20749;6753;117662;-77
2022/01/20 04:30:19;;;;;;;3.87;3.30;;;5.50;53.50;;;;;;20860;6753;121568;-83
2022/01/20 04:32:55;;;;;;;3.80;3.60;;;5.40;53.80;;;;;;20675;6753;277632;-78
2022/01/20 04:35:31;;;;;;;3.10;3.00;;;5.50;54.20;;;;;;20882;6753;116586;-80
2022/01/20 04:38:07;;;;;;;3.23;3.03;;;5.50;53.80;;;;;;20658;6768;117518;-79
2022/01/20 04:40:43;;;;;;;3.23;3.10;;;5.40;53.90;;;;;;20785;6768;116886;-81
2022/01/20 04:43:19;;;;;;;3.60;3.40;;;5.30;54.20;;;;;;20632;6753;283927;-81
2022/01/20 04:46:16;;;;;;;3.60;3.40;;;5.40;54.40;;;;;;20649;6750;291383;-81
2022/01/20 04:57:30;;;;;;;3.27;3.17;;;6.40;52.40;;;;;;20131;6860;309641;-81
2022/01/20 05:00:06;;;;;;;2.80;2.60;;;6.40;52.30;;;;;;20883;6750;116930;-81
2022/01/20 05:02:41;;;;;;;2.57;2.47;;;6.20;52.80;;;;;;20907;6739;117156;-79
2022/01/20 05:05:18;;;;;;;3.45;3.15;;;5.90;53.80;;;;;;20771;6713;335744;-84
2022/01/20 05:07:53;;;;;;;2.60;2.50;;;5.90;53.10;;;;;;20770;6728;117148;-81
2022/01/20 05:10:33;;;;;;;2.70;2.60;;;5.90;53.00;;;;;;20807;6762;117065;-78
2022/01/20 05:13:11;;;;;;;2.40;2.30;;;5.70;53.30;;;;;;20925;6732;119856;-79
2022/01/20 05:15:47;;;;;;;2.50;2.40;;;5.40;53.60;;;;;;20930;6728;116802;-78
2022/01/20 05:18:18;;;;;;;2.60;2.50;;;5.50;54.90;;;;;;20558;6714;284862;-78
2022/01/20 05:20:53;;;;;;;2.90;2.80;;;5.50;54.20;;;;;;20677;6740;277053;-79
2022/01/20 05:23:29;;;;;;;2.28;2.17;;;5.80;53.60;;;;;;20709;6725;275851;-79
2022/01/20 05:26:04;;;;;;;2.33;2.23;;;6.10;53.00;;;;;;20699;6733;310240;-79
2022/01/20 05:28:40;;;;;;;2.50;2.30;;;6.40;52.40;;;;;;20670;6738;277284;-78
2022/01/20 05:31:17;;;;;;;2.30;2.20;;;6.50;51.80;;;;;;20686;6738;280073;-79
2022/01/20 05:33:54;;;;;;;2.07;1.97;;;6.70;51.30;;;;;;20696;6732;305696;-79
2022/01/20 05:36:29;;;;;;;2.17;2.08;;;6.70;51.00;;;;;;20639;6736;311820;-81
2022/01/20 05:39:06;;;;;;;2.07;1.97;;;6.80;50.90;;;;;;20823;6759;115690;-79
2022/01/20 05:41:41;;;;;;;2.00;1.90;;;6.50;51.00;;;;;;20616;6763;305951;-79
2022/01/20 05:44:17;;;;;;;1.67;1.60;;;6.50;51.60;;;;;;20839;6748;116781;-78
2022/01/20 05:46:53;;;;;;;1.60;1.57;;;6.30;51.60;;;;;;20778;6759;117262;-78
2022/01/20 05:49:28;;;;;;;1.30;1.30;;;6.00;52.10;;;;;;20843;6761;67758;-80
2022/01/20 05:52:04;;;;;;;1.80;1.80;;;5.70;52.60;;;;;;20607;6750;337251;-81
2022/01/20 05:54:39;;;;;;;1.40;1.40;;;5.80;53.00;;;;;;20866;6749;117984;-80
2022/01/20 05:57:16;;;;;;;1.73;1.62;;;5.80;52.70;;;;;;20565;6740;343721;-81
2022/01/20 06:00:01;;;;;;;1.70;1.60;;;5.90;52.80;;;;;;20719;6738;277118;-80
2022/01/20 06:02:35;;;;;;;1.60;1.53;;;6.20;52.40;;;;;;20741;6720;321565;-80
2022/01/20 06:05:03;;;;;;;1.60;1.60;;;6.40;52.10;;;;;;20927;6735;121468;-81
2022/01/20 06:07:40;;;;;;;1.70;1.60;;;6.30;52.00;;;;;;20627;6720;335866;-79
2022/01/20 06:10:15;;;;;;;1.47;1.47;;;6.30;52.40;;;;;;20947;6718;117521;-81
2022/01/20 06:12:51;;;;;;;1.10;1.10;;;6.10;52.30;;;;;;20859;6744;117969;-80
2022/01/20 06:15:27;;;;;;;1.30;1.30;;;5.80;52.70;;;;;;20896;6737;117760;-80
2022/01/20 06:18:02;;;;;;;1.30;1.30;;;5.60;53.20;;;;;;20721;6752;120608;-80
2022/01/20 06:20:38;;;;;;;1.13;1.13;;;5.40;53.50;;;;;;20867;6737;117569;-81
2022/01/20 06:23:15;;;;;;;1.30;1.23;;;5.40;54.50;;;;;;20680;6736;281318;-81
2022/01/20 06:25:51;;;;;;;1.33;1.33;;;5.40;54.10;;;;;;20696;6733;334062;-81
2022/01/20 06:28:27;;;;;;;1.00;1.00;;;5.80;53.60;;;;;;20698;6789;121952;-80
2022/01/20 06:31:03;;;;;;;1.30;1.30;;;5.70;53.00;;;;;;20714;6724;276605;-81
2022/01/20 06:33:39;;;;;;;1.20;1.20;;;5.80;53.20;;;;;;20729;6724;276144;-80
2022/01/20 06:36:15;;;;;;;1.30;1.20;;;6.30;52.30;;;;;;20635;6742;288712;-80
2022/01/20 06:38:50;;;;;;;1.20;1.10;;;6.20;52.20;;;;;;20720;6724;343269;-81
2022/01/20 06:41:27;;;;;;;0.97;0.97;;;6.40;51.80;;;;;;20948;6724;117225;-81
2022/01/20 06:44:02;;;;;;;1.20;1.20;;;6.20;51.90;;;;;;20724;6724;305945;-83
2022/01/20 06:46:37;;;;;;;1.07;1.07;;;6.20;52.40;;;;;;20819;6739;117338;-83
2022/01/20 06:49:13;;;;;;;1.00;1.00;;;6.00;52.40;;;;;;20820;6756;117544;-84
2022/01/20 06:51:50;;;;;;;1.00;1.00;;;5.70;52.80;;;;;;20599;6767;277723;-85
2022/01/20 06:54:26;;;;;;;1.40;1.30;;;5.80;53.30;;;;;;20611;6744;276145;-88
2022/01/20 06:57:02;;;;;;;0.93;0.93;;;6.10;52.90;;;;;;20837;6736;117828;-84
2022/01/20 06:59:37;;;;;;;1.27;1.20;;;6.00;52.60;;;;;;20721;6720;329219;-84
2022/01/20 07:02:13;;;;;;;0.93;0.93;;;6.00;52.80;;;;;;20971;6705;121641;-85
2022/01/20 07:04:49;;;;;;;1.10;1.10;;;5.90;52.60;;;;;;20721;6717;304558;-85
2022/01/20 07:07:25;;;;;;;1.00;1.00;;;6.00;53.00;;;;;;20860;6717;116878;-91
2022/01/20 07:10:03;;;;;;;1.27;1.10;;;5.60;53.10;;;;;;20951;6717;116704;-85
2022/01/20 07:12:39;;;;;;;1.00;1.00;;;5.60;53.10;;;;;;20702;6726;305578;-84
2022/01/20 07:15:14;;;;;;;1.03;0.93;;;5.80;53.50;;;;;;20890;6731;116862;-83
2022/01/20 07:17:50;;;;;;;1.07;1.07;;;5.70;53.00;;;;;;20790;6722;117095;-83
2022/01/20 07:20:26;;;;;;;1.20;1.20;;;5.60;54.20;;;;;;20578;6748;336297;-87
2022/01/20 07:23:02;;;;;;;1.67;1.07;;;5.60;53.50;;;;;;20825;6758;116900;-84
2022/01/20 07:25:37;;;;;;;1.77;1.07;;;5.60;53.20;;;;;;20845;6754;117361;-82
2022/01/20 07:28:13;;;;;;;1.40;1.40;;;5.50;53.50;;;;;;20458;6754;311747;-86
2022/01/20 07:30:48;;;;;;;1.67;1.58;;;5.60;53.80;;;;;;20679;6738;333621;-86
2022/01/20 07:33:25;;;;;;;1.60;1.60;;;5.90;53.30;;;;;;20889;6738;118958;-84
2022/01/20 07:36:05;;;;;;;1.43;1.43;;;5.90;53.00;;;;;;20887;6738;117265;-85
2022/01/20 07:38:39;;;;;;;1.43;1.43;;;5.40;53.70;;;;;;20665;6809;117616;-86
2022/01/20 07:41:15;;;;;;;3.47;1.77;;;5.40;53.70;;;;;;20836;6753;118174;-85
2022/01/20 07:43:50;;;;;;;1.67;1.60;;;5.20;54.10;;;;;;20849;6748;116641;-86
2022/01/20 07:46:26;;;;;;;2.10;2.00;;;5.10;54.30;;;;;;20647;6740;288410;-87
2022/01/20 07:49:01;;;;;;;2.15;2.05;;;5.40;54.80;;;;;;20718;6729;335375;-86
2022/01/20 07:51:40;;;;;;;1.80;1.70;;;5.80;54.20;;;;;;20872;6752;117343;-86
2022/01/20 07:54:14;;;;;;;2.00;1.80;;;5.70;53.60;;;;;;20673;6750;275606;-83
2022/01/20 07:56:55;;;;;;;2.00;1.90;;;5.80;53.60;;;;;;20865;6750;116967;-85
2022/01/20 07:59:26;;;;;;;1.83;1.73;;;5.80;53.40;;;;;;20890;6802;120598;-85
2022/01/20 08:02:02;;;;;;;1.73;1.63;;;5.50;53.60;;;;;;20578;6766;116137;-86
2022/01/20 08:04:37;;;;;;;1.97;1.87;;;5.30;54.00;;;;;;20577;6751;116302;-88
2022/01/20 08:07:23;;;;;;;;;;;;;;;;;;;;;
2022/01/20 08:12:54;;;;;;;1.83;1.73;;;5.20;54.60;;;;;;21475;6514;93543;-84
2022/01/20 08:15:20;;;;;;;1.92;1.90;;;5.30;54.20;;;;;;20712;6794;305838;-87
2022/01/20 08:17:44;;;;;;;2.37;2.23;;;5.40;54.20;;;;;;20630;6794;306611;-87
2022/01/20 08:20:11;;;;;;;2.00;1.90;;;5.70;53.60;;;;;;20787;6839;119888;-88
2022/01/20 08:22:38;;;;;;;2.20;2.10;;;5.60;53.50;;;;;;20774;6839;116361;-87
2022/01/20 08:25:04;;;;;;;1.97;1.87;;;5.50;54.30;;;;;;20805;6839;117369;-86
2022/01/20 08:27:30;;;;;;;2.37;2.17;;;5.50;55.00;;;;;;20827;6833;73736;-87
2022/01/20 08:29:56;;;;;;;1.90;1.80;;;5.60;55.40;;;;;;20866;6833;67758;-87
2022/01/20 08:32:22;;;;;;;2.10;2.00;;;5.70;55.30;;;;;;20592;6833;311779;-87
2022/01/20 08:34:47;;;;;;;2.22;2.12;;;6.00;54.70;;;;;;20790;6833;117506;-83
2022/01/20 08:37:13;;;;;;;2.17;2.08;;;6.10;53.90;;;;;;20801;6833;116982;-83
2022/01/20 08:39:44;;;;;;;2.40;2.20;;;6.00;53.90;;;;;;20807;6833;117194;-87
2022/01/20 08:42:08;;;;;;;2.55;2.35;;;6.00;54.10;;;;;;20587;6833;277592;-84
2022/01/20 08:44:34;;;;;;;2.67;2.57;;;6.20;53.80;;;;;;20413;6844;279789;-86
2022/01/20 08:47:01;;;;;;;2.87;2.70;;;6.60;52.90;;;;;;20517;6847;305440;-87
2022/01/20 08:49:25;;;;;;;2.90;2.70;;;6.90;52.00;;;;;;20533;6841;319130;-80
2022/01/20 08:51:52;;;;;;;2.60;2.50;;;7.10;51.30;;;;;;20553;6841;311676;-81
2022/01/20 08:54:20;;;;;;;2.80;2.70;;;7.30;50.80;;;;;;20515;6841;310436;-82
2022/01/20 08:56:46;;;;;;;2.93;2.70;;;7.40;50.60;;;;;;20752;6841;117580;-82
2022/01/20 08:59:12;;;;;;;3.00;2.80;;;7.10;50.60;;;;;;20722;6841;118017;-84
2022/01/20 09:01:37;;;;;;;3.03;2.78;;;6.80;51.20;;;;;;20527;6841;308559;-86
2022/01/20 09:04:04;;;;;;;3.00;2.83;;;7.00;51.30;;;;;;20524;6841;337607;-85
2022/01/20 09:06:29;;;;;;;2.90;2.80;;;7.00;51.30;;;;;;20512;6841;308519;-83
2022/01/20 09:08:55;;;;;;;2.90;2.70;;;7.20;50.80;;;;;;20673;6859;117044;-83
2022/01/20 09:11:23;;;;;;;3.25;3.05;;;7.00;50.80;;;;;;20456;6863;337824;-82
2022/01/20 09:16:33;;;;;;;2.50;2.40;;;6.90;51.00;;;;;;20658;6853;117726;-82
2022/01/20 09:18:59;;;;;;;3.00;2.70;;;6.60;51.50;;;;;;20614;6868;117104;-81
2022/01/20 09:21:25;;;;;;;3.17;2.97;;;6.40;52.30;;;;;;20456;6849;280682;-82
2022/01/20 09:23:50;;;;;;;3.17;2.97;;;6.50;52.20;;;;;;20666;6855;117134;-80
2022/01/20 09:26:15;;;;;;;3.55;3.30;;;6.50;51.90;;;;;;20453;6856;320971;-82
2022/01/20 09:28:44;;;;;;;3.05;2.85;;;6.70;52.20;;;;;;20636;6871;117964;-82
2022/01/20 09:31:09;;;;;;;3.53;3.23;;;6.70;52.00;;;;;;20476;6857;278547;-81
2022/01/20 09:33:35;;;;;;;3.30;3.00;;;6.80;51.70;;;;;;20502;6857;307856;-79
2022/01/20 09:36:01;;;;;;;3.30;3.00;;;7.30;51.30;;;;;;20484;6856;336607;-81
2022/01/20 09:38:27;;;;;;;3.00;2.80;;;7.20;50.60;;;;;;20650;6856;147849;-81
2022/01/20 09:40:53;;;;;;;3.40;3.10;;;7.10;50.40;;;;;;20457;6856;282608;-81
2022/01/20 09:43:20;;;;;;;2.60;2.50;;;7.10;50.60;;;;;;20674;6857;117860;-81
2022/01/20 09:45:45;;;;;;;4.33;3.10;;;7.00;50.60;;;;;;20463;6857;308565;-82
2022/01/20 09:48:12;;;;;;;3.23;3.03;;;7.40;50.40;;;;;;20418;6857;299348;-83
2022/01/20 09:50:37;;;;;;;3.23;2.90;;;7.40;50.40;;;;;;20689;6857;118047;-81
2022/01/20 09:53:03;;;;;;;2.58;2.35;;;7.30;50.40;;;;;;20694;6857;116079;-81
2022/01/20 09:55:28;;;;;;;4.10;2.93;;;7.10;50.70;;;;;;20488;6857;279413;-84
2022/01/20 09:57:54;;;;;;;2.87;2.67;;;7.10;50.60;;;;;;20684;6857;119879;-82
2022/01/20 10:00:19;;;;;;;3.70;3.10;;;7.10;50.50;;;;;;20658;6857;117797;-83
2022/01/20 10:02:55;;;;;;;3.10;2.90;;;6.90;50.80;;;;;;20476;6857;335727;-80
2022/01/20 10:05:27;;;;;;;2.43;2.33;;;7.00;50.70;;;;;;20686;6857;117940;-81
2022/01/20 10:07:53;;;;;;;3.77;2.47;;;7.00;50.60;;;;;;20642;6872;116034;-82
2022/01/20 10:10:18;;;;;;;3.58;3.20;;;6.90;50.90;;;;;;20472;6857;278157;-81
2022/01/20 10:12:44;;;;;;;5.22;2.67;;;7.00;50.80;;;;;;20690;6857;117308;-81
2022/01/20 10:15:12;;;;;;;3.15;2.85;;;7.00;51.20;;;;;;20493;6857;287519;-80
2022/01/20 10:17:35;;;;;;;4.17;3.00;;;7.10;50.30;;;;;;20494;6857;308379;-81
2022/01/20 10:20:01;;;;;;;5.30;2.80;;;7.40;49.70;;;;;;20712;6857;116256;-81
2022/01/20 10:22:27;;;;;;;3.28;2.72;;;7.40;49.70;;;;;;20461;6857;287641;-81
2022/01/20 10:25:08;;;;;;;4.90;3.05;;;7.40;49.20;;;;;;20494;6857;278497;-80
2022/01/20 10:27:34;;;;;;;2.80;2.60;;;7.70;49.10;;;;;;20631;6872;116373;-81
2022/01/20 10:30:00;;;;;;;2.90;2.70;;;7.60;49.00;;;;;;20678;6857;118081;-80
2022/01/20 10:32:26;;;;;;;5.03;2.90;;;7.40;49.50;;;;;;20478;6857;306961;-81
2022/01/20 10:35:04;;;;;;;3.93;3.10;;;7.80;48.70;;;;;;20505;6855;308200;-81
2022/01/20 10:37:30;;;;;;;4.03;2.20;;;7.80;48.70;;;;;;20678;6871;117464;-84
2022/01/20 10:39:55;;;;;;;5.50;2.50;;;7.80;48.60;;;;;;20726;6856;119707;-81
2022/01/20 10:42:24;;;;;;;3.87;2.60;;;7.60;48.80;;;;;;20399;6871;322882;-80
2022/01/20 10:44:47;;;;;;;4.37;2.80;;;7.70;48.20;;;;;;20501;6856;307560;-81
2022/01/20 10:47:14;;;;;;;3.33;2.55;;;7.90;47.70;;;;;;20709;6856;117115;-81
2022/01/20 10:49:39;;;;;;;4.93;3.00;;;7.90;47.70;;;;;;20425;6871;316092;-80
2022/01/20 10:52:05;;;;;;;6.77;2.77;;;8.00;47.60;;;;;;20713;6857;116606;-81
2022/01/20 10:54:38;;;;;;;5.73;2.97;;;7.70;47.90;;;;;;20687;6857;117311;-80
2022/01/20 10:57:03;;;;;;;3.87;2.53;;;7.70;47.90;;;;;;20720;6857;117268;-80
2022/01/20 10:59:29;;;;;;;5.97;2.80;;;7.50;48.30;;;;;;20513;6857;280087;-81
2022/01/20 11:02:04;;;;;;;4.90;2.60;;;7.60;48.10;;;;;;20719;6857;121503;-81
2022/01/20 11:04:30;;;;;;;3.87;2.30;;;7.60;48.10;;;;;;20701;6857;117742;-80
2022/01/20 11:06:58;;;;;;;4.68;2.70;;;7.50;48.40;;;;;;20521;6857;278269;-80
2022/01/20 11:09:22;;;;;;;5.40;2.60;;;7.70;48.10;;;;;;20702;6857;117724;-81
2022/01/20 11:11:49;;;;;;;2.77;2.10;;;7.80;48.20;;;;;;20715;6857;117251;-81
2022/01/20 11:14:13;;;;;;;4.87;2.43;;;7.60;48.40;;;;;;20650;6872;132791;-81
2022/01/20 11:16:39;;;;;;;5.70;2.62;;;7.60;48.80;;;;;;20474;6857;306874;-84
2022/01/20 11:19:18;;;;;;;5.30;2.67;;;8.10;48.00;;;;;;20432;6872;301624;-85
2022/01/20 11:21:45;;;;;;;3.50;2.43;;;8.00;47.70;;;;;;20716;6857;118108;-80
2022/01/20 11:24:23;;;;;;;4.27;2.80;;;8.10;47.50;;;;;;20476;6857;308784;-80
2022/01/20 11:26:52;;;;;;;3.07;2.50;;;8.10;47.50;;;;;;20677;6872;117836;-80
2022/01/20 11:29:19;;;;;;;5.47;2.62;;;8.00;47.50;;;;;;20484;6857;307736;-83
2022/01/20 11:31:45;;;;;;;6.18;2.78;;;8.30;47.60;;;;;;20496;6857;305434;-81
2022/01/20 11:34:14;;;;;;;3.30;2.07;;;8.20;47.10;;;;;;20695;6857;116280;-81
2022/01/20 11:36:41;;;;;;;4.17;2.27;;;8.10;47.00;;;;;;20684;6857;117267;-81
2022/01/20 11:39:05;;;;;;;6.17;2.23;;;7.90;47.50;;;;;;20701;6857;117041;-80
2022/01/20 11:41:34;;;;;;;3.80;2.10;;;7.60;48.30;;;;;;20677;6857;118045;-86
2022/01/20 11:43:59;;;;;;;5.43;2.10;;;7.60;48.30;;;;;;20679;6857;117766;-85
2022/01/20 11:46:24;;;;;;;4.30;2.27;;;7.50;48.60;;;;;;20382;6870;277215;-80
2022/01/20 11:49:00;;;;;;;2.80;2.00;;;7.70;48.10;;;;;;20690;6856;117858;-84
2022/01/20 11:51:26;;;;;;;3.33;2.37;;;7.80;48.00;;;;;;20462;6856;279073;-84
2022/01/20 11:54:03;;;;;;;3.27;2.20;;;8.00;47.10;;;;;;20435;6871;279031;-83
2022/01/20 11:56:29;;;;;;;3.47;2.00;;;8.30;46.80;;;;;;20456;6856;278325;-86
2022/01/20 11:58:54;;;;;;;2.60;2.00;;;8.60;46.10;;;;;;20632;6871;117813;-83
2022/01/20 12:01:20;;;;;;;2.08;1.90;;;8.50;46.20;;;;;;20683;6856;117054;-82
2022/01/20 12:03:49;;;;;;;3.33;1.70;;;8.30;46.60;;;;;;20682;6857;119170;-85
2022/01/20 12:06:21;;;;;;;3.17;2.10;;;8.00;46.90;;;;;;20612;6871;119178;-86
2022/01/20 12:08:56;;;;;;;3.00;2.50;;;7.80;47.20;;;;;;20455;6857;310118;-81
2022/01/20 12:11:22;;;;;;;3.77;3.30;;;7.90;47.10;;;;;;20650;6871;117763;-81
2022/01/20 12:13:50;;;;;;;4.67;2.30;;;7.80;47.10;;;;;;20436;6857;307166;-81
2022/01/20 12:16:16;;;;;;;3.70;2.17;;;8.20;47.60;;;;;;20453;6857;331069;-84
2022/01/20 12:18:42;;;;;;;2.47;1.87;;;8.20;47.50;;;;;;20655;6871;71032;-82
2022/01/20 12:21:08;;;;;;;2.63;1.80;;;8.20;47.30;;;;;;20670;6857;117314;-82
2022/01/20 12:23:41;;;;;;;2.50;2.30;;;8.00;47.40;;;;;;20471;6857;338213;-81
2022/01/20 12:26:06;;;;;;;3.87;3.10;;;8.00;47.40;;;;;;20467;6857;309139;-82
2022/01/20 12:28:32;;;;;;;4.50;3.90;;;8.30;47.10;;;;;;20657;6857;117248;-83
2022/01/20 12:30:57;;;;;;;3.90;2.17;;;8.20;47.10;;;;;;20618;6872;117792;-84
2022/01/20 12:33:24;;;;;;;3.30;2.20;;;7.80;47.30;;;;;;20629;6857;117004;-85
2022/01/20 12:35:48;;;;;;;4.10;2.70;;;7.50;47.90;;;;;;20467;6857;309726;-83
2022/01/20 12:38:14;;;;;;;5.35;2.70;;;7.50;49.60;;;;;;20442;6857;338424;-84
2022/01/20 12:40:40;;;;;;;4.78;2.87;;;7.70;49.90;;;;;;20463;6857;299046;-82
2022/01/20 12:43:05;;;;;;;3.87;2.80;;;8.00;49.50;;;;;;20472;6857;279075;-81
2022/01/20 12:48:19;;;;;;;2.30;2.10;;;8.00;49.60;;;;;;20712;6857;125948;-82
2022/01/20 12:50:59;;;;;;;3.45;2.47;;;7.60;49.90;;;;;;20726;6857;116721;-82
2022/01/20 12:53:33;;;;;;;3.27;2.10;;;7.40;50.40;;;;;;20679;6872;117841;-82
2022/01/20 12:55:59;;;;;;;1.93;1.83;;;7.20;51.40;;;;;;20670;6857;116634;-83
2022/01/20 12:58:24;;;;;;;3.23;2.30;;;7.10;51.10;;;;;;20461;6855;311228;-82
2022/01/20 13:00:59;;;;;;;4.20;2.57;;;7.30;51.60;;;;;;20682;6856;117190;-82
2022/01/20 13:03:34;;;;;;;3.97;2.60;;;7.30;51.20;;;;;;20681;6857;117713;-84
2022/01/20 13:06:00;;;;;;;2.30;2.00;;;7.20;51.30;;;;;;20468;6856;326726;-81
2022/01/20 13:08:31;;;;;;;2.50;2.23;;;7.40;52.00;;;;;;20445;6857;278599;-82
2022/01/20 13:10:51;;;;;;;4.03;2.30;;;7.70;51.70;;;;;;20465;6857;283529;-82
2022/01/20 13:13:17;;;;;;;2.60;2.25;;;8.00;51.10;;;;;;20649;6857;117254;-82
2022/01/20 13:15:46;;;;;;;2.60;2.40;;;8.00;50.90;;;;;;20475;6856;307293;-81
2022/01/20 13:18:08;;;;;;;2.63;2.30;;;8.10;50.70;;;;;;20458;6857;310131;-83
2022/01/20 13:20:40;;;;;;;4.12;2.45;;;8.40;50.20;;;;;;20446;6857;309010;-82
2022/01/20 13:23:54;;;;;;;2.70;2.10;;;8.80;49.30;;;;;;20448;6857;304447;-82
2022/01/20 13:25:39;;;;;;;2.67;2.00;;;8.80;49.20;;;;;;20402;6857;278724;-84
2022/01/20 13:28:01;;;;;;;2.50;2.30;;;8.90;48.70;;;;;;20456;6857;326845;-83
2022/01/20 13:30:30;;;;;;;2.53;2.30;;;9.00;47.70;;;;;;20644;6857;117539;-83
2022/01/20 13:32:57;;;;;;;3.70;3.40;;;8.70;47.50;;;;;;20469;6857;306916;-82
2022/01/20 13:35:22;;;;;;;3.80;2.00;;;8.60;47.90;;;;;;20479;6857;291670;-82
2022/01/20 13:38:03;;;;;;;2.23;1.37;;;8.50;47.10;;;;;;20690;6857;116639;-83
2022/01/20 13:40:27;;;;;;;2.60;1.30;;;8.20;46.80;;;;;;20604;6872;119959;-82
2022/01/20 13:45:39;;;;;;;2.37;1.60;;;7.20;48.40;;;;;;20473;6857;299715;-83
2022/01/20 13:48:04;;;;;;;1.40;1.30;;;7.20;48.40;;;;;;20674;6857;117254;-83
2022/01/20 13:50:33;;;;;;;3.00;1.80;;;6.90;48.40;;;;;;20447;6857;308730;-82
2022/01/20 13:52:59;;;;;;;1.70;1.60;;;6.80;49.80;;;;;;20653;6857;117696;-84
2022/01/20 13:55:28;;;;;;;2.40;1.70;;;6.60;50.00;;;;;;20428;6872;308419;-85
2022/01/20 13:57:55;;;;;;;1.90;1.50;;;6.60;51.90;;;;;;20677;6857;117246;-85
2022/01/20 14:00:20;;;;;;;2.23;1.40;;;6.50;51.10;;;;;;20661;6857;117627;-82
2022/01/20 14:02:50;;;;;;;3.17;1.80;;;6.20;51.10;;;;;;20482;6857;308145;-83
2022/01/20 14:05:18;;;;;;;2.40;1.80;;;6.20;51.70;;;;;;20481;6857;309560;-86
2022/01/20 14:07:43;;;;;;;3.42;1.67;;;6.40;52.80;;;;;;20428;6872;337898;-83
2022/01/20 14:10:09;;;;;;;2.70;1.73;;;6.70;52.40;;;;;;20681;6854;119425;-85
2022/01/20 14:12:35;;;;;;;2.13;1.80;;;6.50;52.50;;;;;;20700;6852;117189;-85
2022/01/20 14:15:01;;;;;;;2.57;1.77;;;6.40;52.40;;;;;;20489;6852;310499;-85
2022/01/20 14:17:29;;;;;;;2.67;1.87;;;6.50;52.00;;;;;;20466;6856;311243;-85